メインページ
METAR-TAF:

METAR-TAF

空港 :

Oscoda-Wurtsmith Airport

Oscoda, ミシガン州, アメリカ合衆国

緯度: 44-27N, 経度: 083-22W, 海抜: 193m

現時点の気象観測

当レポートは24分前の10:55(UTC)に作成
の風 4kt
気温 -5°C
湿度 73%
気圧 1019 hPa
視程: 16.1km
晴天

METAR: KOSC 221055Z AUTO 19004KT 10SM CLR M05/M09 A3009 RMK AO2 T10511091

時間: 06:19 (11:19 UTC)


TAF: 見つかりません

4,000以上の空港の気象観測と天気予報(METAR報とTAF報)

利用可能な観測所は地図上に黄色い丸と赤い丸で示す。

丸の上にカーソルを重ねると観測所名を参照できる。

次にクリックすると気象観測と天気予報を参照できる。

マップの切り替え:黒色「×」印の緑ボタンをクリックして拡大、「-」印の緑ボタンをクリックして縮小、緑色の三角印をクリックして隣りの地図に切り替え


METAR-TAF: